createdAt,value
2023-03-17T00:00:32.886Z,14.30
2023-03-17T00:03:01.667Z,15.40
2023-03-17T00:05:39.576Z,15.50
2023-03-17T00:08:20.522Z,16.30
2023-03-17T00:10:52.630Z,18.50
2023-03-17T00:13:21.303Z,17.50
2023-03-17T00:16:00.445Z,14.10
2023-03-17T00:18:30.935Z,17.30
2023-03-17T00:21:00.215Z,20.20
2023-03-17T00:23:28.637Z,19.50
2023-03-17T00:25:57.624Z,19.50
2023-03-17T00:28:27.392Z,16.90
2023-03-17T00:30:58.751Z,16.30
2023-03-17T00:33:28.641Z,18.90
2023-03-17T00:35:57.678Z,18.60
2023-03-17T00:38:26.662Z,21.80
2023-03-17T00:40:57.695Z,28.10
2023-03-17T00:43:26.627Z,24.20
2023-03-17T00:45:55.914Z,30.40
2023-03-17T00:48:26.176Z,24.10
2023-03-17T00:50:54.714Z,26.00
2023-03-17T00:53:23.714Z,27.50
2023-03-17T00:55:52.545Z,26.60
2023-03-17T00:58:27.322Z,27.50
2023-03-17T01:00:55.950Z,31.00
2023-03-17T01:03:25.784Z,45.30
2023-03-17T01:05:54.705Z,45.10
2023-03-17T01:08:25.805Z,52.80
2023-03-17T01:10:54.945Z,45.90
2023-03-17T01:13:28.754Z,51.40
2023-03-17T01:15:57.998Z,47.30
2023-03-17T01:18:27.408Z,40.00
2023-03-17T01:20:55.799Z,28.50
2023-03-17T01:23:24.486Z,24.10
2023-03-17T01:25:54.619Z,24.40
2023-03-17T01:28:23.653Z,26.80
2023-03-17T01:30:52.522Z,21.50
2023-03-17T01:33:21.094Z,23.40
2023-03-17T01:35:50.613Z,22.60
2023-03-17T01:38:19.409Z,24.00
2023-03-17T01:40:50.738Z,22.10
2023-03-17T01:43:31.499Z,22.50
2023-03-17T01:46:15.455Z,21.70
2023-03-17T01:48:51.595Z,23.80
2023-03-17T01:51:50.261Z,21.90
2023-03-17T01:54:30.049Z,21.80
2023-03-17T01:57:04.136Z,22.60
2023-03-17T01:59:35.577Z,26.10
2023-03-17T02:02:07.754Z,21.00
2023-03-17T02:04:39.319Z,22.50
2023-03-17T02:07:08.040Z,23.40
2023-03-17T02:09:40.291Z,19.70
2023-03-17T02:12:09.665Z,19.60
2023-03-17T02:14:38.091Z,22.70
2023-03-17T02:17:09.026Z,21.40
2023-03-17T02:19:39.376Z,21.00
2023-03-17T02:22:08.461Z,18.40
2023-03-17T02:24:39.970Z,21.80
2023-03-17T02:27:34.064Z,23.30
2023-03-17T02:30:04.606Z,23.40
2023-03-17T02:32:36.084Z,20.80
2023-03-17T02:35:05.915Z,19.10
2023-03-17T02:37:34.807Z,19.70
2023-03-17T02:40:06.102Z,22.30
2023-03-17T02:42:35.943Z,19.90
2023-03-17T02:45:06.555Z,17.40
2023-03-17T02:47:42.901Z,18.30
2023-03-17T02:50:23.454Z,21.40
2023-03-17T02:52:51.925Z,20.70
2023-03-17T02:55:21.114Z,20.90
2023-03-17T02:57:49.680Z,19.60
2023-03-17T03:00:21.920Z,20.00
2023-03-17T03:02:50.798Z,23.20
2023-03-17T03:05:25.128Z,28.90
2023-03-17T03:07:53.880Z,39.50
2023-03-17T03:10:22.302Z,46.70
2023-03-17T03:12:53.530Z,50.20
2023-03-17T03:15:23.423Z,63.50
2023-03-17T03:17:52.149Z,44.30
2023-03-17T03:20:22.200Z,43.80
2023-03-17T03:22:51.018Z,60.10
2023-03-17T03:25:19.501Z,63.20
2023-03-17T03:27:49.063Z,46.30
2023-03-17T03:30:17.615Z,36.30
2023-03-17T03:32:48.119Z,47.20
2023-03-17T03:35:17.122Z,48.50
2023-03-17T03:37:50.407Z,51.80
2023-03-17T03:40:18.927Z,49.20
2023-03-17T03:42:47.531Z,43.10
2023-03-17T03:45:16.495Z,43.60
2023-03-17T03:47:44.991Z,60.70
2023-03-17T03:50:16.440Z,92.40
2023-03-17T03:52:46.919Z,169.60
2023-03-17T03:55:15.610Z,111.40
2023-03-17T03:57:44.991Z,147.70
2023-03-17T04:00:15.396Z,113.40
2023-03-17T04:02:47.240Z,50.20
2023-03-17T04:05:17.624Z,36.00
2023-03-17T04:07:48.107Z,28.80
2023-03-17T04:10:16.723Z,30.70
2023-03-17T04:12:47.038Z,27.50
2023-03-17T04:15:19.857Z,22.10
2023-03-17T04:17:48.539Z,20.20
2023-03-17T04:20:17.343Z,24.20
2023-03-17T04:22:47.365Z,22.70
2023-03-17T04:25:15.988Z,21.90
2023-03-17T04:27:44.504Z,22.20
2023-03-17T04:30:17.192Z,22.40
2023-03-17T04:35:18.298Z,26.70
2023-03-17T04:37:49.517Z,23.70
2023-03-17T04:40:24.221Z,20.70
2023-03-17T04:42:52.787Z,19.40
2023-03-17T04:45:21.799Z,21.60
2023-03-17T04:47:51.308Z,20.50
2023-03-17T04:50:20.096Z,17.90
2023-03-17T04:52:52.747Z,18.30
2023-03-17T04:55:21.640Z,23.30
2023-03-17T04:57:50.189Z,23.80
2023-03-17T05:00:19.951Z,19.30
2023-03-17T05:02:49.153Z,18.60
2023-03-17T05:05:19.325Z,16.80
2023-03-17T05:07:47.990Z,17.40
2023-03-17T05:10:16.964Z,16.80
2023-03-17T05:12:46.550Z,18.40
2023-03-17T05:15:16.185Z,18.80
2023-03-17T05:17:44.814Z,26.30
2023-03-17T05:20:13.703Z,25.20
2023-03-17T05:22:42.628Z,20.20
2023-03-17T05:25:17.269Z,18.30
2023-03-17T05:27:46.715Z,18.80
2023-03-17T05:30:15.930Z,20.10
2023-03-17T05:32:45.070Z,18.00
2023-03-17T05:35:13.594Z,20.90
2023-03-17T05:37:45.353Z,22.40
2023-03-17T05:40:14.896Z,26.70
2023-03-17T05:42:44.013Z,22.00
2023-03-17T05:45:13.412Z,21.10
2023-03-17T05:47:45.100Z,21.20
2023-03-17T05:50:14.283Z,23.80
2023-03-17T05:52:43.345Z,18.90
2023-03-17T05:55:12.427Z,26.30
2023-03-17T05:57:42.559Z,23.30
2023-03-17T06:00:12.862Z,36.10
2023-03-17T06:02:42.042Z,59.80
2023-03-17T06:05:10.714Z,37.00
2023-03-17T06:07:53.024Z,75.20
2023-03-17T06:10:25.819Z,28.80
2023-03-17T06:12:59.140Z,41.90
2023-03-17T06:15:29.131Z,50.10
2023-03-17T06:17:57.879Z,25.30
2023-03-17T06:20:28.367Z,23.90
2023-03-17T06:23:04.537Z,25.00
2023-03-17T06:25:36.065Z,29.30
2023-03-17T06:28:15.938Z,31.50
2023-03-17T06:30:44.493Z,34.60
2023-03-17T06:33:19.376Z,36.00
2023-03-17T06:35:48.522Z,29.30
2023-03-17T06:38:17.181Z,27.00
2023-03-17T06:40:51.085Z,29.10
2023-03-17T06:43:20.237Z,28.60
2023-03-17T06:45:49.003Z,80.10
2023-03-17T06:48:18.215Z,28.60
2023-03-17T06:50:48.026Z,29.10
2023-03-17T06:53:18.542Z,32.90
2023-03-17T06:55:47.458Z,33.50
2023-03-17T06:58:16.231Z,37.00
2023-03-17T07:00:45.789Z,61.80
2023-03-17T07:03:17.361Z,44.60
2023-03-17T07:05:49.875Z,41.20
2023-03-17T07:08:19.777Z,40.50
2023-03-17T07:10:49.354Z,50.30
2023-03-17T07:13:18.319Z,40.00
2023-03-17T07:15:48.500Z,40.50
2023-03-17T07:18:22.060Z,44.30
2023-03-17T07:20:50.980Z,42.40
2023-03-17T07:23:21.987Z,42.80
2023-03-17T07:25:51.079Z,39.40
2023-03-17T07:28:22.327Z,42.90
2023-03-17T07:31:02.326Z,40.50
2023-03-17T07:33:34.197Z,45.90
2023-03-17T07:36:05.698Z,42.10
2023-03-17T07:38:42.394Z,47.20
2023-03-17T07:41:15.780Z,36.80
2023-03-17T07:43:47.535Z,29.60
2023-03-17T07:46:18.514Z,40.90
2023-03-17T07:48:47.017Z,37.00
2023-03-17T07:51:17.457Z,34.20
2023-03-17T07:53:46.745Z,38.70
2023-03-17T07:56:15.693Z,43.00
2023-03-17T07:58:44.286Z,39.30
2023-03-17T08:01:21.629Z,42.10
2023-03-17T08:06:29.719Z,38.30
2023-03-17T08:09:02.041Z,40.10
2023-03-17T08:11:31.292Z,34.90
2023-03-17T08:14:01.871Z,39.10
2023-03-17T08:16:31.673Z,64.10
2023-03-17T08:19:04.229Z,41.20
2023-03-17T08:21:34.354Z,31.30
2023-03-17T08:24:05.558Z,34.40
2023-03-17T08:26:36.512Z,33.80
2023-03-17T08:29:10.155Z,36.00
2023-03-17T08:31:40.875Z,43.00
2023-03-17T08:34:10.067Z,33.20
2023-03-17T08:36:39.877Z,30.60
2023-03-17T08:39:10.809Z,32.80
2023-03-17T08:41:41.963Z,33.60
2023-03-17T08:44:15.018Z,35.50
2023-03-17T08:46:43.957Z,35.50
2023-03-17T08:49:13.859Z,44.60
2023-03-17T08:51:42.922Z,31.60
2023-03-17T08:54:13.492Z,26.50
2023-03-17T08:56:42.886Z,28.40
2023-03-17T08:59:11.328Z,27.60
2023-03-17T09:01:44.456Z,26.90
2023-03-17T09:04:13.294Z,33.30
2023-03-17T09:07:01.295Z,28.30
2023-03-17T09:09:34.791Z,30.90
2023-03-17T09:12:06.676Z,29.70
2023-03-17T09:14:43.356Z,24.90
2023-03-17T09:17:14.688Z,23.20
2023-03-17T09:19:43.881Z,26.90
2023-03-17T09:22:14.746Z,27.30
2023-03-17T09:24:44.345Z,22.10
2023-03-17T09:27:13.893Z,23.50
2023-03-17T09:29:43.040Z,25.30
2023-03-17T09:32:11.555Z,27.60
2023-03-17T09:34:42.249Z,28.50
2023-03-17T09:37:10.838Z,28.40
2023-03-17T09:39:40.610Z,28.80
2023-03-17T09:42:33.640Z,27.60
2023-03-17T09:45:32.736Z,29.50
2023-03-17T09:48:17.845Z,37.00
2023-03-17T09:50:56.009Z,35.40
2023-03-17T09:53:34.329Z,32.50
2023-03-17T09:56:42.891Z,35.70
2023-03-17T09:59:36.301Z,44.10
2023-03-17T10:02:18.899Z,37.80
2023-03-17T10:04:48.968Z,53.40
2023-03-17T10:07:22.964Z,47.30
2023-03-17T10:10:03.263Z,38.90
2023-03-17T10:13:13.188Z,46.30
2023-03-17T10:15:51.177Z,27.30
2023-03-17T10:18:20.066Z,48.10
2023-03-17T10:20:55.068Z,32.10
2023-03-17T10:23:30.282Z,36.30
2023-03-17T10:26:02.884Z,27.90
2023-03-17T10:28:34.807Z,26.90
2023-03-17T10:31:33.464Z,37.40
2023-03-17T10:34:17.781Z,37.10
2023-03-17T10:36:51.725Z,39.50
2023-03-17T10:39:23.941Z,31.50
2023-03-17T10:41:57.801Z,25.80
2023-03-17T10:44:39.650Z,25.20
2023-03-17T10:47:21.914Z,33.50
2023-03-17T10:49:52.855Z,24.10
2023-03-17T10:52:36.347Z,29.00
2023-03-17T10:55:06.291Z,28.80
2023-03-17T10:57:39.171Z,32.60
2023-03-17T11:00:18.252Z,36.20
2023-03-17T11:02:59.955Z,25.60
2023-03-17T11:05:30.843Z,29.60
2023-03-17T11:08:11.287Z,26.80
2023-03-17T11:10:41.872Z,23.10
2023-03-17T11:13:10.886Z,26.90
2023-03-17T11:16:05.490Z,23.20
2023-03-17T11:18:38.038Z,31.30
2023-03-17T11:21:06.664Z,30.20
2023-03-17T11:23:58.756Z,28.90
2023-03-17T11:26:43.612Z,24.90
2023-03-17T11:29:33.907Z,25.20
2023-03-17T11:32:25.497Z,26.60
2023-03-17T11:35:18.502Z,24.80
2023-03-17T11:38:24.639Z,25.30
2023-03-17T11:41:11.703Z,23.50
2023-03-17T11:44:03.636Z,23.00
2023-03-17T11:46:42.356Z,26.50
2023-03-17T11:49:36.254Z,23.40
2023-03-17T11:52:16.774Z,23.10
2023-03-17T11:54:54.364Z,21.90
2023-03-17T11:57:28.643Z,22.30
2023-03-17T12:00:04.821Z,22.30
2023-03-17T12:02:54.615Z,22.40
2023-03-17T12:05:27.761Z,29.60
2023-03-17T12:08:12.314Z,22.30
2023-03-17T12:10:45.545Z,22.90
2023-03-17T12:13:34.269Z,22.80
2023-03-17T12:16:04.549Z,22.20
2023-03-17T12:18:35.090Z,23.60
2023-03-17T12:21:14.906Z,23.70
2023-03-17T12:23:49.818Z,20.10
2023-03-17T12:26:20.549Z,24.10
2023-03-17T12:28:57.394Z,23.60
2023-03-17T12:31:29.306Z,20.50
2023-03-17T12:34:06.885Z,20.40
2023-03-17T12:36:37.408Z,20.10
2023-03-17T12:39:09.586Z,20.40
2023-03-17T12:41:41.797Z,18.50
2023-03-17T12:44:15.355Z,20.60
2023-03-17T12:47:04.811Z,21.90
2023-03-17T12:49:49.354Z,22.00
2023-03-17T12:52:37.959Z,27.00
2023-03-17T12:55:13.140Z,63.80
2023-03-17T12:57:46.720Z,24.30
2023-03-17T13:00:29.752Z,24.70
2023-03-17T13:03:13.861Z,26.60
2023-03-17T13:05:46.753Z,30.90
2023-03-17T13:08:39.946Z,25.20
2023-03-17T13:11:27.604Z,26.70
2023-03-17T13:14:06.462Z,30.50
2023-03-17T13:16:41.270Z,23.90
2023-03-17T13:19:27.239Z,29.30
2023-03-17T13:22:05.499Z,22.40
2023-03-17T13:24:47.261Z,20.70
2023-03-17T13:27:31.320Z,34.80
2023-03-17T13:30:01.910Z,23.20
2023-03-17T13:32:33.407Z,23.00
2023-03-17T13:35:01.907Z,24.80
2023-03-17T13:37:31.752Z,21.50
2023-03-17T13:40:19.852Z,24.40
2023-03-17T13:42:49.010Z,25.50
2023-03-17T13:45:38.701Z,23.50
2023-03-17T13:48:36.360Z,22.90
2023-03-17T13:51:14.995Z,22.90
2023-03-17T13:53:54.221Z,27.80
2023-03-17T13:56:26.565Z,24.70
2023-03-17T13:59:11.944Z,21.50
2023-03-17T14:01:48.301Z,20.00
2023-03-17T14:04:26.589Z,24.50
2023-03-17T14:06:58.095Z,20.60
2023-03-17T14:09:39.798Z,25.40
2023-03-17T14:12:17.872Z,29.30
2023-03-17T14:15:08.625Z,25.80
2023-03-17T14:18:08.512Z,26.00
2023-03-17T14:20:37.565Z,25.50
2023-03-17T14:23:06.807Z,25.20
2023-03-17T14:25:38.467Z,26.80
2023-03-17T14:28:11.187Z,22.40
2023-03-17T14:30:40.055Z,22.90
2023-03-17T14:33:12.299Z,26.40
2023-03-17T14:35:43.546Z,29.20
2023-03-17T14:38:23.100Z,22.10
2023-03-17T14:41:01.410Z,24.40
2023-03-17T14:43:30.491Z,27.50
2023-03-17T14:46:32.242Z,21.90
2023-03-17T14:49:24.704Z,24.60
2023-03-17T14:51:53.929Z,22.40
2023-03-17T14:54:25.665Z,25.40
2023-03-17T14:57:02.272Z,23.20
2023-03-17T14:59:34.090Z,23.90
2023-03-17T15:02:32.499Z,21.50
2023-03-17T15:05:28.772Z,22.50
2023-03-17T15:07:57.571Z,21.20
2023-03-17T15:10:31.397Z,22.20
2023-03-17T15:13:01.921Z,18.60
2023-03-17T15:15:38.245Z,17.20
2023-03-17T15:18:16.800Z,23.60
2023-03-17T15:20:46.093Z,24.30
2023-03-17T15:23:18.977Z,23.20
2023-03-17T15:25:51.464Z,24.80
2023-03-17T15:28:20.967Z,21.60
2023-03-17T15:30:53.297Z,20.00
2023-03-17T15:33:28.941Z,15.70
2023-03-17T15:36:00.353Z,16.20
2023-03-17T15:38:29.469Z,19.40
2023-03-17T15:40:58.203Z,14.90
2023-03-17T15:43:27.686Z,19.10
2023-03-17T15:46:04.535Z,13.10
2023-03-17T15:48:36.453Z,12.20
2023-03-17T15:51:05.657Z,13.10
2023-03-17T15:53:34.889Z,14.50
2023-03-17T15:56:04.897Z,15.40
2023-03-17T15:58:33.672Z,15.40
2023-03-17T16:01:03.829Z,14.50
2023-03-17T16:03:37.202Z,12.50
2023-03-17T16:06:07.566Z,11.80
2023-03-17T16:08:37.815Z,12.80
2023-03-17T16:11:08.047Z,14.60
2023-03-17T16:13:37.841Z,15.20
2023-03-17T16:16:07.326Z,15.30
2023-03-17T16:18:37.865Z,16.10
2023-03-17T16:21:11.796Z,17.90
2023-03-17T16:23:40.432Z,21.00
2023-03-17T16:26:15.592Z,19.70
2023-03-17T16:28:46.415Z,22.20
2023-03-17T16:31:25.871Z,17.00
2023-03-17T16:33:54.841Z,20.00
2023-03-17T16:36:24.042Z,16.00
2023-03-17T16:38:52.607Z,22.70
2023-03-17T16:41:23.145Z,19.20
2023-03-17T16:43:59.534Z,20.70
2023-03-17T16:46:34.881Z,22.10
2023-03-17T16:49:07.342Z,19.80
2023-03-17T16:51:36.054Z,18.90
2023-03-17T16:54:06.860Z,21.70
2023-03-17T16:56:35.606Z,25.40
2023-03-17T16:59:10.284Z,29.40
2023-03-17T17:01:38.776Z,27.40
2023-03-17T17:04:11.061Z,31.30
2023-03-17T17:06:41.798Z,25.70
2023-03-17T17:09:10.454Z,25.80
2023-03-17T17:11:38.918Z,25.60
2023-03-17T17:14:08.222Z,28.80
2023-03-17T17:16:40.041Z,29.80
2023-03-17T17:19:17.983Z,28.10
2023-03-17T17:21:46.942Z,22.80
2023-03-17T17:24:16.028Z,25.10
2023-03-17T17:26:44.992Z,36.10
2023-03-17T17:29:14.852Z,24.40
2023-03-17T17:31:43.233Z,33.70
2023-03-17T17:34:12.081Z,31.80
2023-03-17T17:36:40.950Z,28.60
2023-03-17T17:39:14.567Z,31.40
2023-03-17T17:41:45.190Z,28.20
2023-03-17T17:44:14.206Z,29.80
2023-03-17T17:46:43.689Z,30.10
2023-03-17T17:49:12.517Z,23.30
2023-03-17T17:51:41.349Z,34.40
2023-03-17T17:54:12.437Z,25.20
2023-03-17T17:56:46.957Z,30.00
2023-03-17T17:59:15.866Z,29.40
2023-03-17T18:01:44.536Z,29.80
2023-03-17T18:04:20.442Z,30.30
2023-03-17T18:06:49.335Z,27.90
2023-03-17T18:09:21.838Z,35.40
2023-03-17T18:11:50.240Z,29.20
2023-03-17T18:14:18.631Z,35.90
2023-03-17T18:16:47.079Z,28.90
2023-03-17T18:19:16.076Z,34.10
2023-03-17T18:21:46.405Z,26.70
2023-03-17T18:24:21.082Z,28.90
2023-03-17T18:26:49.997Z,30.00
2023-03-17T18:29:18.615Z,33.60
2023-03-17T18:31:51.786Z,27.70
2023-03-17T18:34:26.316Z,43.30
2023-03-17T18:37:00.022Z,41.10
2023-03-17T18:39:28.813Z,34.70
2023-03-17T18:41:57.376Z,30.90
2023-03-17T18:44:26.359Z,41.70
2023-03-17T18:46:54.859Z,29.90
2023-03-17T18:49:28.458Z,39.40
2023-03-17T18:51:57.211Z,35.20
2023-03-17T18:54:26.779Z,33.90
2023-03-17T18:56:56.666Z,36.70
2023-03-17T18:59:25.779Z,36.80
2023-03-17T19:02:00.040Z,35.40
2023-03-17T19:04:29.052Z,38.20
2023-03-17T19:06:57.885Z,35.70
2023-03-17T19:09:27.360Z,39.20
2023-03-17T19:11:56.720Z,35.60
2023-03-17T19:14:25.239Z,38.70
2023-03-17T19:16:54.902Z,36.70
2023-03-17T19:19:24.452Z,43.50
2023-03-17T19:21:52.998Z,40.60
2023-03-17T19:24:21.726Z,36.60
2023-03-17T19:26:50.436Z,40.60
2023-03-17T19:29:22.712Z,38.00
2023-03-17T19:31:51.232Z,41.00
2023-03-17T19:34:19.602Z,40.00
2023-03-17T19:36:48.474Z,35.30
2023-03-17T19:39:17.168Z,37.70
2023-03-17T19:41:47.754Z,40.20
2023-03-17T19:44:16.431Z,33.30
2023-03-17T19:46:44.835Z,33.80
2023-03-17T19:49:13.276Z,33.80
2023-03-17T19:51:42.158Z,34.60
2023-03-17T19:54:12.263Z,38.70
2023-03-17T19:56:42.846Z,32.40
2023-03-17T19:59:11.313Z,33.30
2023-03-17T20:01:41.020Z,32.40
2023-03-17T20:04:11.704Z,28.80
2023-03-17T20:06:40.313Z,35.80
2023-03-17T20:09:09.333Z,35.70
2023-03-17T20:11:37.771Z,32.30
2023-03-17T20:14:08.885Z,36.50
2023-03-17T20:16:37.714Z,32.30
2023-03-17T20:19:07.771Z,33.40
2023-03-17T20:21:39.294Z,30.10
2023-03-17T20:24:08.913Z,32.90
2023-03-17T20:26:43.591Z,30.00
2023-03-17T20:29:14.536Z,31.70
2023-03-17T20:31:43.033Z,28.20
2023-03-17T20:34:11.978Z,28.90
2023-03-17T20:36:43.203Z,26.80
2023-03-17T20:39:15.085Z,29.50
2023-03-17T20:41:44.119Z,27.10
2023-03-17T20:44:12.862Z,25.30
2023-03-17T20:46:42.706Z,25.90
2023-03-17T20:49:12.269Z,24.10
2023-03-17T20:51:44.259Z,22.00
2023-03-17T20:54:13.121Z,23.80
2023-03-17T20:56:41.764Z,25.80
2023-03-17T20:59:11.408Z,24.80
2023-03-17T21:01:40.729Z,23.00
2023-03-17T21:04:10.710Z,24.40
2023-03-17T21:06:42.295Z,27.00
2023-03-17T21:09:11.017Z,25.30
2023-03-17T21:11:41.306Z,25.10
2023-03-17T21:14:13.032Z,22.70
2023-03-17T21:16:45.331Z,25.50
2023-03-17T21:19:19.993Z,29.60
2023-03-17T21:21:48.619Z,26.70
2023-03-17T21:24:31.437Z,24.10
2023-03-17T21:27:01.163Z,24.90
2023-03-17T21:29:30.988Z,27.00
2023-03-17T21:32:07.548Z,23.50
2023-03-17T21:34:37.125Z,22.60
2023-03-17T21:37:05.618Z,23.70
2023-03-17T21:39:36.455Z,24.30
2023-03-17T21:42:05.469Z,24.30
2023-03-17T21:44:38.625Z,24.00
2023-03-17T21:47:08.076Z,23.10
2023-03-17T21:49:36.694Z,22.90
2023-03-17T21:52:06.257Z,20.10
2023-03-17T21:54:35.352Z,21.80
2023-03-17T21:57:05.804Z,21.90
2023-03-17T21:59:37.207Z,21.90
2023-03-17T22:02:05.884Z,22.50
2023-03-17T22:04:36.619Z,22.50
2023-03-17T22:07:05.365Z,21.20
2023-03-17T22:09:37.926Z,22.10
2023-03-17T22:12:08.162Z,21.20
2023-03-17T22:14:36.619Z,23.60
2023-03-17T22:17:06.597Z,24.40
2023-03-17T22:19:35.498Z,25.20
2023-03-17T22:22:08.594Z,24.70
2023-03-17T22:24:41.159Z,25.00
2023-03-17T22:27:09.723Z,23.90
2023-03-17T22:29:39.360Z,25.00
2023-03-17T22:32:08.492Z,24.00
2023-03-17T22:34:37.673Z,23.40
2023-03-17T22:37:07.450Z,25.10
2023-03-17T22:39:35.954Z,23.30
2023-03-17T22:42:06.201Z,23.50
2023-03-17T22:44:35.880Z,25.30
2023-03-17T22:47:04.602Z,23.70
2023-03-17T22:49:34.076Z,23.80
2023-03-17T22:52:02.738Z,24.00
2023-03-17T22:54:31.405Z,24.60
2023-03-17T22:56:59.905Z,23.60
2023-03-17T22:59:32.119Z,24.70
2023-03-17T23:02:01.173Z,23.80
2023-03-17T23:04:30.265Z,22.10
2023-03-17T23:06:59.546Z,25.60
2023-03-17T23:09:28.207Z,24.40
2023-03-17T23:12:01.475Z,23.50
2023-03-17T23:14:31.915Z,22.80
2023-03-17T23:17:00.306Z,24.80
2023-03-17T23:19:30.224Z,27.50
2023-03-17T23:21:59.250Z,25.60
2023-03-17T23:24:27.608Z,28.70
2023-03-17T23:26:58.089Z,24.20
2023-03-17T23:29:27.997Z,26.30
2023-03-17T23:32:00.988Z,25.20
2023-03-17T23:34:29.992Z,27.40
2023-03-17T23:36:58.481Z,25.80
2023-03-17T23:39:26.910Z,28.60
2023-03-17T23:41:55.745Z,25.10
2023-03-17T23:44:27.413Z,24.60
2023-03-17T23:46:56.374Z,23.60
2023-03-17T23:49:24.962Z,23.20
2023-03-17T23:51:54.657Z,19.90
2023-03-17T23:54:23.668Z,22.80
2023-03-17T23:56:54.404Z,23.70
2023-03-17T23:59:23.629Z,21.50
